sensor_id;sensor_type;location;lat;lon;timestamp;temperature;humidity
15203;DHT22;7702;51.046;5.184;2023-05-08T00:00:21;16.20;99.90
15203;DHT22;7702;51.046;5.184;2023-05-08T00:02:47;16.20;99.90
15203;DHT22;7702;51.046;5.184;2023-05-08T00:05:12;16.20;99.90
15203;DHT22;7702;51.046;5.184;2023-05-08T00:07:38;16.20;99.90
15203;DHT22;7702;51.046;5.184;2023-05-08T00:10:05;16.20;99.90
15203;DHT22;7702;51.046;5.184;2023-05-08T00:12:31;16.10;99.90
15203;DHT22;7702;51.046;5.184;2023-05-08T00:14:58;16.10;99.90
15203;DHT22;7702;51.046;5.184;2023-05-08T00:17:24;16.10;99.90
15203;DHT22;7702;51.046;5.184;2023-05-08T00:19:49;16.10;99.90
15203;DHT22;7702;51.046;5.184;2023-05-08T00:22:15;16.10;99.90
15203;DHT22;7702;51.046;5.184;2023-05-08T00:24:41;16.10;99.90
15203;DHT22;7702;51.046;5.184;2023-05-08T00:27:07;16.10;99.90
15203;DHT22;7702;51.046;5.184;2023-05-08T00:29:33;16.10;99.90
15203;DHT22;7702;51.046;5.184;2023-05-08T00:31:59;16.10;99.90
15203;DHT22;7702;51.046;5.184;2023-05-08T00:34:26;16.10;99.90
15203;DHT22;7702;51.046;5.184;2023-05-08T00:36:52;16.10;99.90
15203;DHT22;7702;51.046;5.184;2023-05-08T00:39:17;16.10;99.90
15203;DHT22;7702;51.046;5.184;2023-05-08T00:41:43;16.10;99.90
15203;DHT22;7702;51.046;5.184;2023-05-08T00:44:09;16.10;99.90
15203;DHT22;7702;51.046;5.184;2023-05-08T00:46:35;16.00;99.90
15203;DHT22;7702;51.046;5.184;2023-05-08T00:49:02;16.00;99.90
15203;DHT22;7702;51.046;5.184;2023-05-08T00:51:29;16.00;99.90
15203;DHT22;7702;51.046;5.184;2023-05-08T00:53:58;16.00;99.90
15203;DHT22;7702;51.046;5.184;2023-05-08T00:56:24;16.00;99.90
15203;DHT22;7702;51.046;5.184;2023-05-08T00:58:51;16.00;99.90
15203;DHT22;7702;51.046;5.184;2023-05-08T01:01:17;16.00;99.90
15203;DHT22;7702;51.046;5.184;2023-05-08T01:03:43;16.00;99.90
15203;DHT22;7702;51.046;5.184;2023-05-08T01:06:09;15.90;99.90
15203;DHT22;7702;51.046;5.184;2023-05-08T01:08:35;15.90;99.90
15203;DHT22;7702;51.046;5.184;2023-05-08T01:11:35;15.90;99.90
15203;DHT22;7702;51.046;5.184;2023-05-08T01:14:24;15.90;99.90
15203;DHT22;7702;51.046;5.184;2023-05-08T01:33:45;15.80;99.90
15203;DHT22;7702;51.046;5.184;2023-05-08T01:36:28;15.80;99.90
15203;DHT22;7702;51.046;5.184;2023-05-08T01:39:18;15.80;99.90
15203;DHT22;7702;51.046;5.184;2023-05-08T01:41:53;15.80;99.90
15203;DHT22;7702;51.046;5.184;2023-05-08T01:44:24;15.80;99.90
15203;DHT22;7702;51.046;5.184;2023-05-08T01:46:53;15.70;99.90
15203;DHT22;7702;51.046;5.184;2023-05-08T01:49:29;15.80;99.90
15203;DHT22;7702;51.046;5.184;2023-05-08T01:52:02;15.70;99.90
15203;DHT22;7702;51.046;5.184;2023-05-08T01:54:35;15.70;99.90
15203;DHT22;7702;51.046;5.184;2023-05-08T01:57:05;15.70;99.90
15203;DHT22;7702;51.046;5.184;2023-05-08T01:59:34;15.70;99.90
15203;DHT22;7702;51.046;5.184;2023-05-08T02:02:01;15.60;99.90
15203;DHT22;7702;51.046;5.184;2023-05-08T02:04:28;15.60;99.90
15203;DHT22;7702;51.046;5.184;2023-05-08T02:06:55;15.60;99.90
15203;DHT22;7702;51.046;5.184;2023-05-08T02:09:22;15.70;99.90
15203;DHT22;7702;51.046;5.184;2023-05-08T02:11:50;15.70;99.90
15203;DHT22;7702;51.046;5.184;2023-05-08T02:14:18;15.70;99.90
15203;DHT22;7702;51.046;5.184;2023-05-08T02:16:46;15.70;99.90
15203;DHT22;7702;51.046;5.184;2023-05-08T02:19:14;15.60;99.90
15203;DHT22;7702;51.046;5.184;2023-05-08T02:21:41;15.70;99.90
15203;DHT22;7702;51.046;5.184;2023-05-08T02:24:08;15.60;99.90
15203;DHT22;7702;51.046;5.184;2023-05-08T02:26:36;15.70;99.90
15203;DHT22;7702;51.046;5.184;2023-05-08T02:29:03;15.70;99.90
15203;DHT22;7702;51.046;5.184;2023-05-08T02:31:29;15.70;99.90
15203;DHT22;7702;51.046;5.184;2023-05-08T02:33:56;15.70;99.90
15203;DHT22;7702;51.046;5.184;2023-05-08T02:36:22;15.70;99.90
15203;DHT22;7702;51.046;5.184;2023-05-08T02:38:51;15.70;99.90
15203;DHT22;7702;51.046;5.184;2023-05-08T02:41:20;15.70;99.90
15203;DHT22;7702;51.046;5.184;2023-05-08T02:43:49;15.60;99.90
15203;DHT22;7702;51.046;5.184;2023-05-08T02:46:26;15.70;99.90
15203;DHT22;7702;51.046;5.184;2023-05-08T02:51:38;15.70;99.90
15203;DHT22;7702;51.046;5.184;2023-05-08T02:54:40;15.70;99.90
15203;DHT22;7702;51.046;5.184;2023-05-08T03:00:14;15.60;99.90
15203;DHT22;7702;51.046;5.184;2023-05-08T03:02:43;15.60;99.90
15203;DHT22;7702;51.046;5.184;2023-05-08T03:05:16;15.70;99.90
15203;DHT22;7702;51.046;5.184;2023-05-08T03:07:45;15.50;99.90
15203;DHT22;7702;51.046;5.184;2023-05-08T03:10:13;15.50;99.90
15203;DHT22;7702;51.046;5.184;2023-05-08T03:12:44;15.40;99.90
15203;DHT22;7702;51.046;5.184;2023-05-08T03:15:20;15.50;99.90
15203;DHT22;7702;51.046;5.184;2023-05-08T03:17:51;15.50;99.90
15203;DHT22;7702;51.046;5.184;2023-05-08T03:20:20;15.50;99.90
15203;DHT22;7702;51.046;5.184;2023-05-08T03:22:47;15.40;99.90
15203;DHT22;7702;51.046;5.184;2023-05-08T03:25:16;15.40;99.90
15203;DHT22;7702;51.046;5.184;2023-05-08T03:27:44;15.50;99.90
15203;DHT22;7702;51.046;5.184;2023-05-08T03:30:11;15.50;99.90
15203;DHT22;7702;51.046;5.184;2023-05-08T03:32:38;15.50;99.90
15203;DHT22;7702;51.046;5.184;2023-05-08T03:35:05;15.40;99.90
15203;DHT22;7702;51.046;5.184;2023-05-08T03:37:32;15.40;99.90
15203;DHT22;7702;51.046;5.184;2023-05-08T03:39:58;15.40;99.90
15203;DHT22;7702;51.046;5.184;2023-05-08T03:42:24;15.40;99.90
15203;DHT22;7702;51.046;5.184;2023-05-08T03:44:51;15.30;99.90
15203;DHT22;7702;51.046;5.184;2023-05-08T03:47:19;15.20;99.90
15203;DHT22;7702;51.046;5.184;2023-05-08T03:49:46;15.10;99.90
15203;DHT22;7702;51.046;5.184;2023-05-08T03:52:12;15.10;99.90
15203;DHT22;7702;51.046;5.184;2023-05-08T03:54:38;15.10;99.90
15203;DHT22;7702;51.046;5.184;2023-05-08T03:57:04;15.00;99.90
15203;DHT22;7702;51.046;5.184;2023-05-08T03:59:37;15.10;99.90
15203;DHT22;7702;51.046;5.184;2023-05-08T04:02:16;15.10;99.90
15203;DHT22;7702;51.046;5.184;2023-05-08T04:04:44;15.10;99.90
15203;DHT22;7702;51.046;5.184;2023-05-08T04:07:18;15.10;99.90
15203;DHT22;7702;51.046;5.184;2023-05-08T04:10:11;15.00;99.90
15203;DHT22;7702;51.046;5.184;2023-05-08T04:12:44;15.00;99.90
15203;DHT22;7702;51.046;5.184;2023-05-08T04:15:20;15.00;99.90
15203;DHT22;7702;51.046;5.184;2023-05-08T04:17:56;15.00;99.90
15203;DHT22;7702;51.046;5.184;2023-05-08T04:20:25;15.00;99.90
15203;DHT22;7702;51.046;5.184;2023-05-08T04:22:53;15.00;99.90
15203;DHT22;7702;51.046;5.184;2023-05-08T04:25:19;15.00;99.90
15203;DHT22;7702;51.046;5.184;2023-05-08T04:27:47;15.00;99.90
15203;DHT22;7702;51.046;5.184;2023-05-08T04:30:15;15.00;99.90
15203;DHT22;7702;51.046;5.184;2023-05-08T04:32:42;15.00;99.90
15203;DHT22;7702;51.046;5.184;2023-05-08T04:35:08;15.00;99.90
15203;DHT22;7702;51.046;5.184;2023-05-08T04:37:34;15.00;99.90
15203;DHT22;7702;51.046;5.184;2023-05-08T04:40:00;15.10;99.90
15203;DHT22;7702;51.046;5.184;2023-05-08T04:42:26;15.00;99.90
15203;DHT22;7702;51.046;5.184;2023-05-08T04:44:52;15.00;99.90
15203;DHT22;7702;51.046;5.184;2023-05-08T04:47:18;15.00;99.90
15203;DHT22;7702;51.046;5.184;2023-05-08T04:49:44;15.00;99.90
15203;DHT22;7702;51.046;5.184;2023-05-08T04:52:10;15.00;99.90
15203;DHT22;7702;51.046;5.184;2023-05-08T04:54:36;15.00;99.90
15203;DHT22;7702;51.046;5.184;2023-05-08T04:57:02;15.00;99.90
15203;DHT22;7702;51.046;5.184;2023-05-08T04:59:28;15.00;99.90
15203;DHT22;7702;51.046;5.184;2023-05-08T05:01:57;15.00;99.90
15203;DHT22;7702;51.046;5.184;2023-05-08T05:04:22;15.00;99.90
15203;DHT22;7702;51.046;5.184;2023-05-08T05:06:49;15.00;99.90
15203;DHT22;7702;51.046;5.184;2023-05-08T05:09:14;15.00;99.90
15203;DHT22;7702;51.046;5.184;2023-05-08T05:11:40;15.10;99.90
15203;DHT22;7702;51.046;5.184;2023-05-08T05:14:06;15.10;99.90
15203;DHT22;7702;51.046;5.184;2023-05-08T05:16:32;15.00;99.90
15203;DHT22;7702;51.046;5.184;2023-05-08T05:18:58;15.00;99.90
15203;DHT22;7702;51.046;5.184;2023-05-08T05:21:24;15.00;99.90
15203;DHT22;7702;51.046;5.184;2023-05-08T05:23:50;15.00;99.90
15203;DHT22;7702;51.046;5.184;2023-05-08T05:26:16;15.00;99.90
15203;DHT22;7702;51.046;5.184;2023-05-08T05:28:41;15.00;99.90
15203;DHT22;7702;51.046;5.184;2023-05-08T05:31:07;14.90;99.90
15203;DHT22;7702;51.046;5.184;2023-05-08T05:33:33;15.00;99.90
15203;DHT22;7702;51.046;5.184;2023-05-08T05:35:59;15.00;99.90
15203;DHT22;7702;51.046;5.184;2023-05-08T05:38:25;15.10;99.90
15203;DHT22;7702;51.046;5.184;2023-05-08T05:40:51;15.10;99.90
15203;DHT22;7702;51.046;5.184;2023-05-08T05:43:17;15.20;99.90
15203;DHT22;7702;51.046;5.184;2023-05-08T05:45:42;15.20;99.90
15203;DHT22;7702;51.046;5.184;2023-05-08T05:48:09;15.10;99.90
15203;DHT22;7702;51.046;5.184;2023-05-08T05:50:35;15.20;99.90
15203;DHT22;7702;51.046;5.184;2023-05-08T05:53:02;15.20;99.90
15203;DHT22;7702;51.046;5.184;2023-05-08T05:55:28;15.20;99.90
15203;DHT22;7702;51.046;5.184;2023-05-08T05:57:54;15.20;99.90
15203;DHT22;7702;51.046;5.184;2023-05-08T06:00:20;15.10;99.90
15203;DHT22;7702;51.046;5.184;2023-05-08T06:02:46;15.10;99.90
15203;DHT22;7702;51.046;5.184;2023-05-08T06:05:12;15.10;99.90
15203;DHT22;7702;51.046;5.184;2023-05-08T06:07:38;15.20;99.90
15203;DHT22;7702;51.046;5.184;2023-05-08T06:10:04;15.20;99.90
15203;DHT22;7702;51.046;5.184;2023-05-08T06:12:30;15.30;99.90
15203;DHT22;7702;51.046;5.184;2023-05-08T06:14:56;15.30;99.90
15203;DHT22;7702;51.046;5.184;2023-05-08T06:17:21;15.40;99.90
15203;DHT22;7702;51.046;5.184;2023-05-08T06:19:47;15.40;99.90
15203;DHT22;7702;51.046;5.184;2023-05-08T06:22:19;15.50;99.90
15203;DHT22;7702;51.046;5.184;2023-05-08T06:24:49;15.50;99.90
15203;DHT22;7702;51.046;5.184;2023-05-08T06:27:18;15.60;99.90
15203;DHT22;7702;51.046;5.184;2023-05-08T06:29:45;15.70;99.90
15203;DHT22;7702;51.046;5.184;2023-05-08T06:32:11;15.70;99.90
15203;DHT22;7702;51.046;5.184;2023-05-08T06:34:36;15.80;99.90
15203;DHT22;7702;51.046;5.184;2023-05-08T06:37:02;16.00;99.90
15203;DHT22;7702;51.046;5.184;2023-05-08T06:39:28;16.10;99.90
15203;DHT22;7702;51.046;5.184;2023-05-08T06:41:53;16.10;99.90
15203;DHT22;7702;51.046;5.184;2023-05-08T06:44:19;16.20;99.90
15203;DHT22;7702;51.046;5.184;2023-05-08T06:46:45;16.30;99.90
15203;DHT22;7702;51.046;5.184;2023-05-08T06:49:10;16.40;99.90
15203;DHT22;7702;51.046;5.184;2023-05-08T06:51:36;16.40;99.90
15203;DHT22;7702;51.046;5.184;2023-05-08T06:54:03;16.40;99.90
15203;DHT22;7702;51.046;5.184;2023-05-08T06:56:32;16.40;99.90
15203;DHT22;7702;51.046;5.184;2023-05-08T06:58:58;16.40;99.90
15203;DHT22;7702;51.046;5.184;2023-05-08T07:01:24;16.40;99.90
15203;DHT22;7702;51.046;5.184;2023-05-08T07:03:50;16.20;99.90
15203;DHT22;7702;51.046;5.184;2023-05-08T07:06:16;16.20;99.90
15203;DHT22;7702;51.046;5.184;2023-05-08T07:08:42;16.30;99.90
15203;DHT22;7702;51.046;5.184;2023-05-08T07:11:08;16.30;99.90
15203;DHT22;7702;51.046;5.184;2023-05-08T07:13:35;16.40;99.90
15203;DHT22;7702;51.046;5.184;2023-05-08T07:16:00;16.40;99.90
15203;DHT22;7702;51.046;5.184;2023-05-08T07:18:26;16.40;99.90
15203;DHT22;7702;51.046;5.184;2023-05-08T07:20:52;16.40;99.90
15203;DHT22;7702;51.046;5.184;2023-05-08T07:23:17;16.30;99.90
15203;DHT22;7702;51.046;5.184;2023-05-08T07:25:43;16.40;99.90
15203;DHT22;7702;51.046;5.184;2023-05-08T07:28:09;16.30;99.90
15203;DHT22;7702;51.046;5.184;2023-05-08T07:30:35;16.30;99.90
15203;DHT22;7702;51.046;5.184;2023-05-08T07:33:00;16.40;99.90
15203;DHT22;7702;51.046;5.184;2023-05-08T07:35:27;16.30;99.90
15203;DHT22;7702;51.046;5.184;2023-05-08T07:37:53;16.40;99.90
15203;DHT22;7702;51.046;5.184;2023-05-08T07:40:19;16.50;99.90
15203;DHT22;7702;51.046;5.184;2023-05-08T07:42:45;16.50;99.90
15203;DHT22;7702;51.046;5.184;2023-05-08T07:45:12;16.30;99.90
15203;DHT22;7702;51.046;5.184;2023-05-08T07:47:47;16.20;99.90
15203;DHT22;7702;51.046;5.184;2023-05-08T07:50:13;16.40;99.90
15203;DHT22;7702;51.046;5.184;2023-05-08T07:52:39;16.50;99.90
15203;DHT22;7702;51.046;5.184;2023-05-08T07:55:05;16.70;99.90
15203;DHT22;7702;51.046;5.184;2023-05-08T07:57:42;16.70;99.90
15203;DHT22;7702;51.046;5.184;2023-05-08T08:00:12;16.90;99.90
15203;DHT22;7702;51.046;5.184;2023-05-08T08:02:39;17.10;99.90
15203;DHT22;7702;51.046;5.184;2023-05-08T08:05:05;17.30;99.90
15203;DHT22;7702;51.046;5.184;2023-05-08T08:07:31;17.30;99.90
15203;DHT22;7702;51.046;5.184;2023-05-08T08:09:58;17.40;99.90
15203;DHT22;7702;51.046;5.184;2023-05-08T08:12:24;17.50;99.90
15203;DHT22;7702;51.046;5.184;2023-05-08T08:14:50;17.60;99.90
15203;DHT22;7702;51.046;5.184;2023-05-08T08:17:16;17.50;99.90
15203;DHT22;7702;51.046;5.184;2023-05-08T08:19:42;17.80;99.90
15203;DHT22;7702;51.046;5.184;2023-05-08T08:22:07;17.80;99.90
15203;DHT22;7702;51.046;5.184;2023-05-08T08:24:34;17.90;99.90
15203;DHT22;7702;51.046;5.184;2023-05-08T08:27:00;17.70;99.90
15203;DHT22;7702;51.046;5.184;2023-05-08T08:29:26;17.80;99.90
15203;DHT22;7702;51.046;5.184;2023-05-08T08:31:51;18.00;99.90
15203;DHT22;7702;51.046;5.184;2023-05-08T08:34:17;18.00;99.90
15203;DHT22;7702;51.046;5.184;2023-05-08T08:36:43;18.10;99.90
15203;DHT22;7702;51.046;5.184;2023-05-08T08:39:09;18.10;99.90
15203;DHT22;7702;51.046;5.184;2023-05-08T08:41:35;18.10;99.90
15203;DHT22;7702;51.046;5.184;2023-05-08T08:44:04;18.10;99.90
15203;DHT22;7702;51.046;5.184;2023-05-08T08:46:30;18.30;99.90
15203;DHT22;7702;51.046;5.184;2023-05-08T08:48:58;18.30;99.90
15203;DHT22;7702;51.046;5.184;2023-05-08T08:51:27;18.30;99.90
15203;DHT22;7702;51.046;5.184;2023-05-08T08:54:13;18.50;99.90
15203;DHT22;7702;51.046;5.184;2023-05-08T08:56:40;18.50;99.90
15203;DHT22;7702;51.046;5.184;2023-05-08T08:59:10;18.50;99.90
15203;DHT22;7702;51.046;5.184;2023-05-08T09:01:38;18.50;99.90
15203;DHT22;7702;51.046;5.184;2023-05-08T09:04:05;18.60;99.90
15203;DHT22;7702;51.046;5.184;2023-05-08T09:06:36;18.70;99.90
15203;DHT22;7702;51.046;5.184;2023-05-08T09:09:03;18.80;99.90
15203;DHT22;7702;51.046;5.184;2023-05-08T09:11:29;18.80;99.90
15203;DHT22;7702;51.046;5.184;2023-05-08T09:13:54;18.80;99.90
15203;DHT22;7702;51.046;5.184;2023-05-08T09:16:21;18.80;99.90
15203;DHT22;7702;51.046;5.184;2023-05-08T09:18:47;18.60;99.90
15203;DHT22;7702;51.046;5.184;2023-05-08T09:21:13;18.50;99.90
15203;DHT22;7702;51.046;5.184;2023-05-08T09:23:58;18.30;99.90
15203;DHT22;7702;51.046;5.184;2023-05-08T09:26:28;18.50;99.90
15203;DHT22;7702;51.046;5.184;2023-05-08T09:29:17;18.70;99.90
15203;DHT22;7702;51.046;5.184;2023-05-08T09:31:50;19.00;99.90
15203;DHT22;7702;51.046;5.184;2023-05-08T09:34:27;19.40;99.90
15203;DHT22;7702;51.046;5.184;2023-05-08T09:37:11;20.00;99.90
15203;DHT22;7702;51.046;5.184;2023-05-08T09:39:38;20.40;99.90
15203;DHT22;7702;51.046;5.184;2023-05-08T09:42:06;20.40;99.90
15203;DHT22;7702;51.046;5.184;2023-05-08T09:47:15;20.10;99.90
15203;DHT22;7702;51.046;5.184;2023-05-08T09:50:04;19.90;99.90
15203;DHT22;7702;51.046;5.184;2023-05-08T09:52:31;19.70;99.90
15203;DHT22;7702;51.046;5.184;2023-05-08T09:55:01;19.70;99.90
15203;DHT22;7702;51.046;5.184;2023-05-08T09:57:28;19.50;99.90
15203;DHT22;7702;51.046;5.184;2023-05-08T10:00:06;19.40;99.90
15203;DHT22;7702;51.046;5.184;2023-05-08T10:02:35;19.20;99.90
15203;DHT22;7702;51.046;5.184;2023-05-08T10:05:01;19.20;99.90
15203;DHT22;7702;51.046;5.184;2023-05-08T10:07:33;19.30;99.90
15203;DHT22;7702;51.046;5.184;2023-05-08T10:10:01;19.50;99.90
15203;DHT22;7702;51.046;5.184;2023-05-08T10:12:28;19.80;99.90
15203;DHT22;7702;51.046;5.184;2023-05-08T10:14:55;19.90;99.90
15203;DHT22;7702;51.046;5.184;2023-05-08T10:17:37;20.00;99.90
15203;DHT22;7702;51.046;5.184;2023-05-08T10:20:06;20.10;99.90
15203;DHT22;7702;51.046;5.184;2023-05-08T10:22:35;19.90;99.90
15203;DHT22;7702;51.046;5.184;2023-05-08T10:25:02;20.20;99.90
15203;DHT22;7702;51.046;5.184;2023-05-08T10:27:40;20.40;99.90
15203;DHT22;7702;51.046;5.184;2023-05-08T10:30:12;21.00;99.90
15203;DHT22;7702;51.046;5.184;2023-05-08T10:32:41;22.00;99.90
15203;DHT22;7702;51.046;5.184;2023-05-08T10:35:09;22.20;99.90
15203;DHT22;7702;51.046;5.184;2023-05-08T10:37:37;22.20;99.90
15203;DHT22;7702;51.046;5.184;2023-05-08T10:40:04;22.70;99.90
15203;DHT22;7702;51.046;5.184;2023-05-08T10:42:32;23.20;99.90
15203;DHT22;7702;51.046;5.184;2023-05-08T10:45:00;23.30;99.90
15203;DHT22;7702;51.046;5.184;2023-05-08T10:53:21;23.20;99.90
15203;DHT22;7702;51.046;5.184;2023-05-08T10:55:50;23.30;99.90
15203;DHT22;7702;51.046;5.184;2023-05-08T11:03:22;23.30;99.90
15203;DHT22;7702;51.046;5.184;2023-05-08T11:05:49;23.50;99.90
15203;DHT22;7702;51.046;5.184;2023-05-08T11:08:20;23.90;99.90
15203;DHT22;7702;51.046;5.184;2023-05-08T11:15:58;23.70;99.90
15203;DHT22;7702;51.046;5.184;2023-05-08T11:18:23;23.10;99.90
15203;DHT22;7702;51.046;5.184;2023-05-08T11:21:01;22.60;99.90
15203;DHT22;7702;51.046;5.184;2023-05-08T11:23:33;22.10;99.90
15203;DHT22;7702;51.046;5.184;2023-05-08T11:26:13;22.30;99.90
15203;DHT22;7702;51.046;5.184;2023-05-08T11:29:01;22.50;99.90
15203;DHT22;7702;51.046;5.184;2023-05-08T11:31:49;22.60;99.90
15203;DHT22;7702;51.046;5.184;2023-05-08T11:39:34;22.30;99.90
15203;DHT22;7702;51.046;5.184;2023-05-08T11:45:13;22.70;99.90
15203;DHT22;7702;51.046;5.184;2023-05-08T11:47:41;23.00;99.90
15203;DHT22;7702;51.046;5.184;2023-05-08T11:50:11;23.10;99.90
15203;DHT22;7702;51.046;5.184;2023-05-08T11:52:39;22.60;99.90
15203;DHT22;7702;51.046;5.184;2023-05-08T11:55:07;22.60;99.90
15203;DHT22;7702;51.046;5.184;2023-05-08T11:57:34;22.70;99.90
15203;DHT22;7702;51.046;5.184;2023-05-08T12:00:07;22.90;99.90
15203;DHT22;7702;51.046;5.184;2023-05-08T12:02:38;22.50;99.90
15203;DHT22;7702;51.046;5.184;2023-05-08T12:05:04;22.40;99.90
15203;DHT22;7702;51.046;5.184;2023-05-08T12:07:30;22.50;99.90
15203;DHT22;7702;51.046;5.184;2023-05-08T12:09:56;22.40;99.90
15203;DHT22;7702;51.046;5.184;2023-05-08T12:12:22;22.00;99.90
15203;DHT22;7702;51.046;5.184;2023-05-08T12:14:51;21.50;99.90
15203;DHT22;7702;51.046;5.184;2023-05-08T12:17:17;21.70;99.90
15203;DHT22;7702;51.046;5.184;2023-05-08T12:19:43;22.30;99.90
15203;DHT22;7702;51.046;5.184;2023-05-08T12:22:09;23.10;99.90
15203;DHT22;7702;51.046;5.184;2023-05-08T12:24:35;23.20;99.90
15203;DHT22;7702;51.046;5.184;2023-05-08T12:27:02;23.00;99.90
15203;DHT22;7702;51.046;5.184;2023-05-08T12:29:28;22.60;99.90
15203;DHT22;7702;51.046;5.184;2023-05-08T12:31:54;22.40;99.90
15203;DHT22;7702;51.046;5.184;2023-05-08T12:34:20;22.20;99.90
15203;DHT22;7702;51.046;5.184;2023-05-08T12:36:46;22.60;99.90
15203;DHT22;7702;51.046;5.184;2023-05-08T12:39:13;23.00;99.90
15203;DHT22;7702;51.046;5.184;2023-05-08T12:41:47;22.70;99.90
15203;DHT22;7702;51.046;5.184;2023-05-08T12:44:23;22.20;99.90
15203;DHT22;7702;51.046;5.184;2023-05-08T12:46:51;22.10;99.90
15203;DHT22;7702;51.046;5.184;2023-05-08T12:49:25;22.20;99.90
15203;DHT22;7702;51.046;5.184;2023-05-08T12:51:51;22.60;99.90
15203;DHT22;7702;51.046;5.184;2023-05-08T12:54:18;22.60;99.90
15203;DHT22;7702;51.046;5.184;2023-05-08T12:56:44;22.60;99.90
15203;DHT22;7702;51.046;5.184;2023-05-08T12:59:09;22.80;99.90
15203;DHT22;7702;51.046;5.184;2023-05-08T13:01:35;23.10;99.90
15203;DHT22;7702;51.046;5.184;2023-05-08T13:04:01;23.00;99.90
15203;DHT22;7702;51.046;5.184;2023-05-08T13:06:27;23.20;99.90
15203;DHT22;7702;51.046;5.184;2023-05-08T13:08:53;23.80;99.90
15203;DHT22;7702;51.046;5.184;2023-05-08T13:11:30;23.80;99.90
15203;DHT22;7702;51.046;5.184;2023-05-08T13:13:56;24.10;99.90
15203;DHT22;7702;51.046;5.184;2023-05-08T13:16:21;23.90;99.90
15203;DHT22;7702;51.046;5.184;2023-05-08T13:18:47;23.70;99.90
15203;DHT22;7702;51.046;5.184;2023-05-08T13:21:13;23.60;99.90
15203;DHT22;7702;51.046;5.184;2023-05-08T13:23:38;23.40;99.90
15203;DHT22;7702;51.046;5.184;2023-05-08T13:26:04;23.00;99.90
15203;DHT22;7702;51.046;5.184;2023-05-08T13:28:30;23.20;99.90
15203;DHT22;7702;51.046;5.184;2023-05-08T13:30:55;23.10;99.90
15203;DHT22;7702;51.046;5.184;2023-05-08T13:33:21;23.00;99.90
15203;DHT22;7702;51.046;5.184;2023-05-08T13:35:47;23.00;99.90
15203;DHT22;7702;51.046;5.184;2023-05-08T13:38:13;23.00;99.90
15203;DHT22;7702;51.046;5.184;2023-05-08T13:40:39;22.70;99.90
15203;DHT22;7702;51.046;5.184;2023-05-08T13:43:04;23.00;99.90
15203;DHT22;7702;51.046;5.184;2023-05-08T13:45:30;23.40;99.90
15203;DHT22;7702;51.046;5.184;2023-05-08T13:47:57;23.80;99.90
15203;DHT22;7702;51.046;5.184;2023-05-08T13:50:22;23.70;99.90
15203;DHT22;7702;51.046;5.184;2023-05-08T13:52:49;24.10;99.90
15203;DHT22;7702;51.046;5.184;2023-05-08T13:55:15;24.40;99.90
15203;DHT22;7702;51.046;5.184;2023-05-08T13:57:41;24.70;99.90
15203;DHT22;7702;51.046;5.184;2023-05-08T14:00:07;25.00;99.90
15203;DHT22;7702;51.046;5.184;2023-05-08T14:02:34;25.20;99.90
15203;DHT22;7702;51.046;5.184;2023-05-08T14:05:00;25.80;99.90
15203;DHT22;7702;51.046;5.184;2023-05-08T14:07:25;25.40;99.90
15203;DHT22;7702;51.046;5.184;2023-05-08T14:09:52;25.40;99.90
15203;DHT22;7702;51.046;5.184;2023-05-08T14:12:18;25.20;99.90
15203;DHT22;7702;51.046;5.184;2023-05-08T14:14:44;25.00;99.90
15203;DHT22;7702;51.046;5.184;2023-05-08T14:17:10;24.60;99.90
15203;DHT22;7702;51.046;5.184;2023-05-08T14:19:36;24.10;99.90
15203;DHT22;7702;51.046;5.184;2023-05-08T14:22:02;24.60;99.90
15203;DHT22;7702;51.046;5.184;2023-05-08T14:24:27;24.50;99.90
15203;DHT22;7702;51.046;5.184;2023-05-08T14:26:53;24.50;99.90
15203;DHT22;7702;51.046;5.184;2023-05-08T14:29:19;25.00;99.90
15203;DHT22;7702;51.046;5.184;2023-05-08T14:31:45;24.30;99.90
15203;DHT22;7702;51.046;5.184;2023-05-08T14:34:11;23.80;99.90
15203;DHT22;7702;51.046;5.184;2023-05-08T14:36:36;23.70;99.90
15203;DHT22;7702;51.046;5.184;2023-05-08T14:39:02;23.80;99.90
15203;DHT22;7702;51.046;5.184;2023-05-08T14:41:29;23.30;99.90
15203;DHT22;7702;51.046;5.184;2023-05-08T14:43:56;23.00;99.90
15203;DHT22;7702;51.046;5.184;2023-05-08T14:46:21;23.50;99.90
15203;DHT22;7702;51.046;5.184;2023-05-08T14:48:47;23.80;99.90
15203;DHT22;7702;51.046;5.184;2023-05-08T14:51:13;24.10;99.90
15203;DHT22;7702;51.046;5.184;2023-05-08T14:53:39;24.00;99.90
15203;DHT22;7702;51.046;5.184;2023-05-08T14:56:06;24.20;99.90
15203;DHT22;7702;51.046;5.184;2023-05-08T14:58:32;23.80;99.90
15203;DHT22;7702;51.046;5.184;2023-05-08T15:00:58;23.20;99.90
15203;DHT22;7702;51.046;5.184;2023-05-08T15:03:24;23.10;99.90
15203;DHT22;7702;51.046;5.184;2023-05-08T15:05:50;22.80;99.90
15203;DHT22;7702;51.046;5.184;2023-05-08T15:08:15;22.90;99.90
15203;DHT22;7702;51.046;5.184;2023-05-08T15:10:41;23.10;99.90
15203;DHT22;7702;51.046;5.184;2023-05-08T15:13:07;23.40;99.90
15203;DHT22;7702;51.046;5.184;2023-05-08T15:15:32;23.70;99.90
15203;DHT22;7702;51.046;5.184;2023-05-08T15:17:58;23.80;99.90
15203;DHT22;7702;51.046;5.184;2023-05-08T15:20:24;23.60;99.90
15203;DHT22;7702;51.046;5.184;2023-05-08T15:22:49;23.30;99.90
15203;DHT22;7702;51.046;5.184;2023-05-08T15:25:15;22.60;99.90
15203;DHT22;7702;51.046;5.184;2023-05-08T15:27:41;22.60;99.90
15203;DHT22;7702;51.046;5.184;2023-05-08T15:30:07;22.80;99.90
15203;DHT22;7702;51.046;5.184;2023-05-08T15:32:33;22.80;99.90
15203;DHT22;7702;51.046;5.184;2023-05-08T15:35:00;22.60;99.90
15203;DHT22;7702;51.046;5.184;2023-05-08T15:37:26;22.50;99.90
15203;DHT22;7702;51.046;5.184;2023-05-08T15:39:52;22.80;99.90
15203;DHT22;7702;51.046;5.184;2023-05-08T15:42:18;22.70;99.90
15203;DHT22;7702;51.046;5.184;2023-05-08T15:44:45;22.70;99.90
15203;DHT22;7702;51.046;5.184;2023-05-08T15:47:11;22.70;99.90
15203;DHT22;7702;51.046;5.184;2023-05-08T15:49:37;23.30;99.90
15203;DHT22;7702;51.046;5.184;2023-05-08T15:52:03;23.60;99.90
15203;DHT22;7702;51.046;5.184;2023-05-08T15:54:28;23.40;99.90
15203;DHT22;7702;51.046;5.184;2023-05-08T15:56:54;23.40;99.90
15203;DHT22;7702;51.046;5.184;2023-05-08T15:59:20;23.20;99.90
15203;DHT22;7702;51.046;5.184;2023-05-08T16:01:45;23.20;99.90
15203;DHT22;7702;51.046;5.184;2023-05-08T16:04:11;23.00;99.90
15203;DHT22;7702;51.046;5.184;2023-05-08T16:06:37;22.50;99.90
15203;DHT22;7702;51.046;5.184;2023-05-08T16:09:03;22.20;99.90
15203;DHT22;7702;51.046;5.184;2023-05-08T16:11:29;21.90;99.90
15203;DHT22;7702;51.046;5.184;2023-05-08T16:13:56;21.80;99.90
15203;DHT22;7702;51.046;5.184;2023-05-08T16:16:24;21.70;99.90
15203;DHT22;7702;51.046;5.184;2023-05-08T16:18:49;21.60;99.90
15203;DHT22;7702;51.046;5.184;2023-05-08T16:21:15;21.60;99.90
15203;DHT22;7702;51.046;5.184;2023-05-08T16:23:41;21.50;99.90
15203;DHT22;7702;51.046;5.184;2023-05-08T16:26:06;21.30;99.90
15203;DHT22;7702;51.046;5.184;2023-05-08T16:28:33;21.40;99.90
15203;DHT22;7702;51.046;5.184;2023-05-08T16:30:58;21.40;99.90
15203;DHT22;7702;51.046;5.184;2023-05-08T16:33:24;21.80;99.90
15203;DHT22;7702;51.046;5.184;2023-05-08T16:35:50;22.00;99.90
15203;DHT22;7702;51.046;5.184;2023-05-08T16:38:16;21.90;99.90